createdAt,value
2023-06-17T00:00:30.028Z,63.10
2023-06-17T00:01:30.090Z,62.90
2023-06-17T00:02:30.078Z,63.20
2023-06-17T00:03:30.018Z,63.10
2023-06-17T00:04:29.988Z,63.20
2023-06-17T00:05:30.009Z,63.20
2023-06-17T00:06:29.976Z,63.20
2023-06-17T00:07:29.987Z,63.20
2023-06-17T00:08:29.989Z,63.50
2023-06-17T00:09:29.938Z,63.70
2023-06-17T00:10:29.920Z,63.90
2023-06-17T00:11:30.063Z,64.01
2023-06-17T00:12:29.904Z,64.01
2023-06-17T00:13:29.913Z,64.04
2023-06-17T00:14:29.888Z,63.93
2023-06-17T00:15:29.886Z,64.04
2023-06-17T00:16:29.856Z,64.04
2023-06-17T00:17:29.912Z,64.04
2023-06-17T00:18:29.921Z,64.14
2023-06-17T00:19:29.859Z,64.04
2023-06-17T00:20:29.837Z,64.14
2023-06-17T00:21:29.815Z,64.04
2023-06-17T00:22:29.832Z,63.93
2023-06-17T00:23:29.804Z,63.93
2023-06-17T00:24:29.822Z,63.84
2023-06-17T00:25:29.783Z,63.84
2023-06-17T00:26:29.771Z,63.93
2023-06-17T00:27:29.774Z,64.04
2023-06-17T00:28:30.043Z,64.24
2023-06-17T00:29:29.752Z,64.24
2023-06-17T00:30:29.727Z,64.14
2023-06-17T00:31:29.717Z,64.04
2023-06-17T00:32:29.748Z,64.04
2023-06-17T00:33:29.709Z,64.04
2023-06-17T00:34:29.732Z,64.04
2023-06-17T00:35:29.677Z,64.14
2023-06-17T00:36:29.663Z,64.14
2023-06-17T00:37:29.670Z,64.04
2023-06-17T00:38:29.652Z,64.14
2023-06-17T00:39:29.641Z,64.14
2023-06-17T00:40:29.674Z,64.14
2023-06-17T00:41:29.613Z,64.04
2023-06-17T00:42:29.665Z,64.14
2023-06-17T00:43:29.581Z,64.64
2023-06-17T00:44:29.581Z,65.08
2023-06-17T00:45:29.575Z,65.48
2023-06-17T00:46:29.620Z,65.78
2023-06-17T00:47:29.558Z,66.22
2023-06-17T00:48:29.578Z,66.52
2023-06-17T00:49:29.543Z,66.72
2023-06-17T00:50:29.545Z,66.96
2023-06-17T00:51:29.517Z,67.16
2023-06-17T00:53:29.502Z,67.26
2023-06-17T00:54:29.502Z,67.16
2023-06-17T00:55:29.454Z,66.96
2023-06-17T00:56:29.447Z,67.06
2023-06-17T00:57:29.456Z,66.96
2023-06-17T00:58:29.459Z,66.86
2023-06-17T00:59:29.424Z,66.75
2023-06-17T01:00:29.408Z,66.25
2023-06-17T01:01:29.417Z,66.45
2023-06-17T01:02:29.469Z,66.25
2023-06-17T01:03:29.513Z,66.15
2023-06-17T01:04:29.405Z,66.15
2023-06-17T01:05:29.380Z,66.15
2023-06-17T01:06:29.375Z,66.12
2023-06-17T01:07:29.351Z,66.12
2023-06-17T01:08:29.346Z,66.22
2023-06-17T01:09:29.362Z,66.12
2023-06-17T01:10:29.332Z,66.12
2023-06-17T01:11:29.310Z,66.02
2023-06-17T01:12:29.316Z,66.12
2023-06-17T01:13:29.306Z,66.22
2023-06-17T01:14:29.347Z,66.22
2023-06-17T01:15:29.267Z,66.25
2023-06-17T01:16:29.300Z,66.25
2023-06-17T01:17:29.287Z,66.15
2023-06-17T01:18:29.249Z,66.15
2023-06-17T01:19:29.225Z,65.95
2023-06-17T01:20:29.256Z,65.95
2023-06-17T01:21:29.221Z,66.05
2023-06-17T01:22:29.252Z,65.95
2023-06-17T01:23:29.190Z,65.84
2023-06-17T01:24:29.230Z,65.84
2023-06-17T01:25:29.234Z,65.95
2023-06-17T01:26:29.172Z,66.15
2023-06-17T01:27:29.146Z,66.15
2023-06-17T01:28:29.129Z,66.15
2023-06-17T01:29:29.255Z,66.15
2023-06-17T01:30:29.111Z,65.95
2023-06-17T01:31:29.094Z,65.95
2023-06-17T01:32:29.130Z,65.84
2023-06-17T01:33:29.101Z,65.98
2023-06-17T01:34:29.089Z,66.08
2023-06-17T01:35:29.080Z,65.98
2023-06-17T01:36:29.053Z,65.88
2023-06-17T01:37:29.056Z,65.98
2023-06-17T01:38:29.028Z,66.08
2023-06-17T01:39:29.024Z,66.08
2023-06-17T01:40:29.027Z,66.18
2023-06-17T01:41:28.991Z,66.18
2023-06-17T01:42:28.979Z,66.28
2023-06-17T01:43:28.973Z,66.48
2023-06-17T01:44:28.969Z,66.48
2023-06-17T01:45:29.123Z,66.58
2023-06-17T01:46:29.134Z,66.69
2023-06-17T01:47:28.987Z,66.78
2023-06-17T01:48:29.002Z,67.02
2023-06-17T01:49:28.920Z,67.12
2023-06-17T01:50:28.927Z,67.22
2023-06-17T01:51:28.903Z,67.22
2023-06-17T01:52:28.889Z,67.22
2023-06-17T01:53:28.896Z,67.22
2023-06-17T01:54:28.857Z,67.43
2023-06-17T01:55:28.871Z,67.52
2023-06-17T01:56:28.854Z,67.63
2023-06-17T01:57:28.842Z,67.63
2023-06-17T01:58:28.820Z,67.83
2023-06-17T01:59:28.818Z,67.72
2023-06-17T02:00:28.815Z,67.72
2023-06-17T02:01:28.826Z,67.76
2023-06-17T02:02:28.832Z,67.76
2023-06-17T02:03:28.887Z,67.86
2023-06-17T02:04:28.759Z,67.96
2023-06-17T02:05:28.772Z,68.16
2023-06-17T02:06:28.724Z,68.37
2023-06-17T02:07:28.773Z,68.37
2023-06-17T02:08:28.719Z,68.37
2023-06-17T02:09:28.713Z,68.37
2023-06-17T02:10:28.703Z,68.50
2023-06-17T02:11:28.693Z,68.50
2023-06-17T02:12:28.673Z,68.60
2023-06-17T02:13:28.723Z,68.70
2023-06-17T02:14:28.657Z,68.80
2023-06-17T02:15:28.658Z,68.90
2023-06-17T02:16:28.669Z,68.80
2023-06-17T02:17:28.689Z,68.70
2023-06-17T02:18:28.623Z,68.70
2023-06-17T02:19:28.619Z,68.70
2023-06-17T02:20:28.594Z,68.70
2023-06-17T02:21:28.608Z,68.60
2023-06-17T02:22:28.585Z,68.70
2023-06-17T02:23:28.585Z,68.70
2023-06-17T02:24:28.669Z,68.70
2023-06-17T02:25:28.559Z,68.70
2023-06-17T02:26:28.536Z,68.80
2023-06-17T02:27:28.547Z,68.90
2023-06-17T02:28:28.532Z,69.01
2023-06-17T02:29:28.504Z,69.01
2023-06-17T02:30:28.712Z,69.01
2023-06-17T02:31:28.542Z,68.90
2023-06-17T02:32:28.521Z,69.04
2023-06-17T02:33:28.465Z,69.04
2023-06-17T02:34:28.459Z,69.04
2023-06-17T02:35:28.450Z,69.14
2023-06-17T02:36:28.454Z,69.14
2023-06-17T02:37:28.427Z,69.14
2023-06-17T02:38:28.420Z,69.14
2023-06-17T02:39:28.422Z,69.14
2023-06-17T02:40:28.404Z,69.24
2023-06-17T02:41:28.397Z,69.24
2023-06-17T02:42:28.393Z,69.34
2023-06-17T02:43:28.372Z,69.44
2023-06-17T02:44:28.362Z,69.34
2023-06-17T02:45:28.417Z,69.34
2023-06-17T02:46:28.374Z,69.44
2023-06-17T02:47:28.364Z,69.54
2023-06-17T02:48:28.324Z,69.65
2023-06-17T02:49:28.335Z,69.74
2023-06-17T02:50:28.373Z,69.74
2023-06-17T02:51:28.300Z,69.85
2023-06-17T02:52:28.281Z,69.95
2023-06-17T02:53:28.260Z,70.05
2023-06-17T02:54:28.270Z,70.08
2023-06-17T02:55:28.257Z,70.18
2023-06-17T02:56:28.218Z,70.18
2023-06-17T02:57:28.225Z,70.29
2023-06-17T02:58:28.226Z,70.49
2023-06-17T02:59:28.200Z,70.49
2023-06-17T03:00:28.198Z,70.49
2023-06-17T03:01:28.308Z,70.49
2023-06-17T03:02:28.287Z,70.49
2023-06-17T03:03:28.207Z,70.39
2023-06-17T03:04:28.156Z,70.18
2023-06-17T03:05:28.178Z,70.29
2023-06-17T03:06:28.138Z,70.29
2023-06-17T03:07:28.130Z,70.39
2023-06-17T03:08:28.123Z,70.59
2023-06-17T03:09:28.106Z,71.09
2023-06-17T03:10:28.102Z,71.20
2023-06-17T03:11:28.083Z,71.20
2023-06-17T03:12:28.063Z,71.40
2023-06-17T03:13:28.054Z,71.50
2023-06-17T03:14:28.030Z,71.60
2023-06-17T03:15:28.055Z,71.91
2023-06-17T03:16:28.093Z,72.01
2023-06-17T03:17:28.065Z,72.24
2023-06-17T03:18:28.012Z,72.34
2023-06-17T03:19:27.990Z,72.55
2023-06-17T03:20:28.015Z,72.65
2023-06-17T03:21:27.968Z,72.55
2023-06-17T03:22:27.981Z,72.55
2023-06-17T03:23:27.960Z,72.65
2023-06-17T03:24:28.021Z,72.55
2023-06-17T03:25:27.943Z,72.58
2023-06-17T03:26:27.973Z,72.68
2023-06-17T03:27:27.926Z,72.78
2023-06-17T03:28:27.908Z,73.09
2023-06-17T03:29:27.907Z,73.60
2023-06-17T03:30:27.926Z,73.70
2023-06-17T03:31:27.883Z,73.80
2023-06-17T03:32:28.356Z,74.00
2023-06-17T03:33:27.858Z,74.10
2023-06-17T03:34:27.841Z,74.30
2023-06-17T03:35:27.840Z,74.41
2023-06-17T03:36:27.924Z,74.61
2023-06-17T03:37:27.824Z,74.61
2023-06-17T03:38:27.834Z,74.71
2023-06-17T03:39:27.792Z,74.71
2023-06-17T03:40:27.764Z,74.61
2023-06-17T03:41:27.796Z,74.65
2023-06-17T03:42:27.771Z,74.54
2023-06-17T03:43:27.771Z,74.44
2023-06-17T03:44:27.777Z,74.34
2023-06-17T03:45:27.741Z,74.34
2023-06-17T03:46:27.773Z,74.44
2023-06-17T03:47:27.769Z,74.54
2023-06-17T03:48:27.701Z,74.65
2023-06-17T03:49:27.717Z,74.85
2023-06-17T03:50:27.673Z,74.44
2023-06-17T03:51:27.749Z,74.17
2023-06-17T03:52:27.652Z,74.27
2023-06-17T03:53:27.659Z,74.38
2023-06-17T03:54:27.647Z,74.48
2023-06-17T03:55:27.708Z,74.68
2023-06-17T03:56:27.713Z,74.88
2023-06-17T03:57:27.620Z,75.29
2023-06-17T03:58:27.596Z,75.70
2023-06-17T03:59:27.588Z,75.70
2023-06-17T04:00:27.605Z,75.79
2023-06-17T04:01:27.555Z,76.00
2023-06-17T04:02:27.658Z,76.20
2023-06-17T04:03:27.633Z,76.44
2023-06-17T04:04:27.566Z,76.44
2023-06-17T04:05:27.533Z,76.54
2023-06-17T04:06:27.543Z,76.75
2023-06-17T04:07:27.512Z,76.75
2023-06-17T04:08:27.530Z,76.75
2023-06-17T04:09:27.490Z,76.75
2023-06-17T04:10:27.636Z,76.75
2023-06-17T04:11:27.464Z,76.85
2023-06-17T04:12:27.461Z,76.85
2023-06-17T04:13:27.452Z,76.85
2023-06-17T04:14:27.469Z,76.75
2023-06-17T04:15:27.444Z,76.54
2023-06-17T04:16:27.406Z,76.64
2023-06-17T04:17:27.457Z,76.75
2023-06-17T04:18:27.390Z,76.85
2023-06-17T04:19:27.404Z,76.78
2023-06-17T04:20:27.364Z,76.85
2023-06-17T04:21:27.374Z,77.09
2023-06-17T04:22:27.351Z,76.95
2023-06-17T04:23:27.342Z,77.09
2023-06-17T04:24:27.355Z,77.19
2023-06-17T04:25:27.350Z,77.29
2023-06-17T04:26:27.316Z,77.29
2023-06-17T04:27:27.293Z,77.25
2023-06-17T04:28:27.272Z,77.15
2023-06-17T04:29:27.278Z,77.15
2023-06-17T04:30:27.299Z,77.36
2023-06-17T04:31:27.254Z,77.49
2023-06-17T04:32:27.312Z,77.49
2023-06-17T04:33:27.234Z,77.49
2023-06-17T04:34:27.237Z,77.49
2023-06-17T04:35:27.254Z,77.59
2023-06-17T04:36:27.211Z,77.70
2023-06-17T04:37:27.183Z,77.70
2023-06-17T04:38:27.174Z,77.90
2023-06-17T04:39:27.176Z,78.00
2023-06-17T04:40:27.218Z,77.80
2023-06-17T04:41:27.151Z,77.70
2023-06-17T04:42:27.128Z,77.45
2023-06-17T04:43:27.119Z,77.36
2023-06-17T04:44:27.117Z,77.25
2023-06-17T04:45:27.140Z,77.05
2023-06-17T04:46:27.114Z,77.05
2023-06-17T04:47:27.106Z,76.95
2023-06-17T04:48:27.078Z,76.95
2023-06-17T04:49:27.070Z,76.81
2023-06-17T04:50:27.085Z,76.71
2023-06-17T04:51:27.062Z,76.71
2023-06-17T04:52:27.040Z,76.40
2023-06-17T04:53:27.046Z,76.20
2023-06-17T04:54:27.036Z,75.79
2023-06-17T04:55:27.030Z,75.70
2023-06-17T04:56:27.035Z,75.90
2023-06-17T04:57:26.991Z,75.86
2023-06-17T04:58:27.000Z,75.96
2023-06-17T04:59:26.983Z,75.96
2023-06-17T05:00:27.272Z,75.86
2023-06-17T05:01:27.059Z,75.66
2023-06-17T05:02:26.949Z,75.35
2023-06-17T05:03:26.980Z,75.25
2023-06-17T05:04:26.943Z,74.95
2023-06-17T05:05:26.899Z,74.54
2023-06-17T05:06:27.278Z,74.41
2023-06-17T05:07:26.885Z,74.61
2023-06-17T05:08:26.869Z,75.05
2023-06-17T05:09:26.874Z,75.46
2023-06-17T05:10:26.889Z,75.15
2023-06-17T05:11:26.868Z,75.25
2023-06-17T05:12:26.894Z,74.85
2023-06-17T05:13:26.853Z,74.85
2023-06-17T05:14:26.824Z,74.71
2023-06-17T05:15:26.814Z,74.61
2023-06-17T05:16:26.878Z,74.61
2023-06-17T05:17:26.809Z,74.51
2023-06-17T05:18:26.852Z,74.41
2023-06-17T05:19:26.750Z,74.21
2023-06-17T05:20:26.766Z,74.30
2023-06-17T05:21:26.738Z,74.21
2023-06-17T05:22:26.749Z,74.21
2023-06-17T05:23:26.748Z,74.41
2023-06-17T05:24:26.950Z,74.41
2023-06-17T05:25:26.701Z,74.51
2023-06-17T05:26:26.687Z,74.71
2023-06-17T05:27:26.679Z,74.57
2023-06-17T05:28:26.696Z,74.37
2023-06-17T05:29:26.691Z,74.17
2023-06-17T05:30:26.750Z,73.97
2023-06-17T05:31:26.721Z,73.86
2023-06-17T05:32:26.735Z,73.76
2023-06-17T05:33:26.610Z,73.36
2023-06-17T05:34:26.682Z,73.22
2023-06-17T05:35:26.594Z,73.22
2023-06-17T05:36:26.789Z,73.22
2023-06-17T05:37:26.576Z,73.12
2023-06-17T05:38:26.562Z,73.12
2023-06-17T05:39:26.570Z,72.92
2023-06-17T05:40:26.576Z,72.72
2023-06-17T05:41:26.544Z,72.52
2023-06-17T05:42:26.534Z,72.28
2023-06-17T05:43:26.500Z,72.08
2023-06-17T05:44:26.498Z,72.21
2023-06-17T05:45:26.524Z,72.31
2023-06-17T05:46:26.520Z,72.72
2023-06-17T05:47:26.495Z,73.02
2023-06-17T05:48:26.824Z,73.12
2023-06-17T05:49:26.460Z,73.22
2023-06-17T05:50:26.463Z,73.43
2023-06-17T05:51:26.427Z,73.22
2023-06-17T05:52:26.424Z,72.31
2023-06-17T05:53:26.415Z,72.38
2023-06-17T05:54:26.409Z,72.48
2023-06-17T05:55:26.402Z,72.38
2023-06-17T05:56:26.403Z,72.17
2023-06-17T05:57:26.412Z,72.14
2023-06-17T05:58:26.384Z,71.94
2023-06-17T05:59:26.353Z,71.44
2023-06-17T06:00:26.381Z,71.53
2023-06-17T06:01:26.373Z,71.33
2023-06-17T06:02:26.402Z,71.03
2023-06-17T06:03:26.351Z,70.93
2023-06-17T06:04:26.322Z,71.03
2023-06-17T06:05:26.346Z,71.03
2023-06-17T06:06:26.346Z,70.89
2023-06-17T06:07:26.285Z,70.89
2023-06-17T06:08:26.274Z,70.79
2023-06-17T06:09:26.290Z,70.69
2023-06-17T06:10:26.247Z,70.39
2023-06-17T06:11:26.245Z,70.49
2023-06-17T06:12:26.267Z,70.76
2023-06-17T06:13:26.203Z,70.46
2023-06-17T06:14:26.201Z,70.25
2023-06-17T06:15:26.197Z,69.65
2023-06-17T06:16:26.247Z,69.55
2023-06-17T06:17:26.200Z,69.55
2023-06-17T06:18:26.182Z,69.55
2023-06-17T06:19:26.176Z,69.31
2023-06-17T06:20:26.158Z,69.31
2023-06-17T06:21:26.141Z,69.42
2023-06-17T06:22:26.156Z,69.31
2023-06-17T06:23:26.133Z,68.80
2023-06-17T06:24:26.224Z,68.60
2023-06-17T06:25:26.098Z,68.47
2023-06-17T06:26:26.084Z,67.26
2023-06-17T06:27:26.084Z,66.96
2023-06-17T06:28:26.072Z,67.46
2023-06-17T06:29:26.053Z,67.46
2023-06-17T06:30:26.072Z,67.76
2023-06-17T06:31:26.025Z,67.53
2023-06-17T06:32:26.074Z,67.63
2023-06-17T06:33:26.028Z,67.33
2023-06-17T06:34:26.012Z,67.43
2023-06-17T06:35:26.020Z,67.53
2023-06-17T06:36:25.975Z,67.33
2023-06-17T06:37:25.961Z,67.30
2023-06-17T06:38:25.951Z,66.99
2023-06-17T06:39:25.928Z,66.19
2023-06-17T06:40:25.949Z,65.78
2023-06-17T06:41:25.923Z,66.29
2023-06-17T06:42:25.901Z,65.65
2023-06-17T06:43:25.887Z,65.65
2023-06-17T06:44:25.895Z,64.95
2023-06-17T06:45:26.006Z,65.75
2023-06-17T06:46:25.921Z,65.35
2023-06-17T06:47:25.922Z,65.35
2023-06-17T06:48:25.869Z,65.55
2023-06-17T06:49:25.837Z,65.72
2023-06-17T06:50:25.841Z,65.92
2023-06-17T06:51:25.853Z,65.82
2023-06-17T06:52:25.824Z,66.42
2023-06-17T06:53:25.804Z,66.63
2023-06-17T06:54:25.778Z,66.33
2023-06-17T06:55:25.783Z,65.62
2023-06-17T06:56:25.781Z,65.42
2023-06-17T06:57:25.787Z,65.29
2023-06-17T06:58:25.804Z,65.39
2023-06-17T06:59:25.747Z,65.19
2023-06-17T07:00:25.718Z,65.19
2023-06-17T07:01:25.769Z,64.89
2023-06-17T07:02:25.730Z,65.46
2023-06-17T07:03:25.737Z,64.55
2023-06-17T07:04:25.742Z,64.55
2023-06-17T07:05:25.667Z,64.35
2023-06-17T07:06:25.665Z,64.82
2023-06-17T07:07:25.652Z,64.42
2023-06-17T07:08:25.647Z,64.32
2023-06-17T07:09:25.793Z,64.32
2023-06-17T07:10:25.687Z,64.02
2023-06-17T07:11:25.604Z,63.99
2023-06-17T07:12:25.619Z,63.28
2023-06-17T07:13:25.590Z,63.68
2023-06-17T07:14:25.601Z,63.79
2023-06-17T07:15:25.582Z,62.78
2023-06-17T07:16:25.604Z,62.78
2023-06-17T07:17:25.567Z,62.95
2023-06-17T07:18:25.537Z,62.75
2023-06-17T07:19:25.543Z,62.95
2023-06-17T07:20:25.513Z,62.85
2023-06-17T07:21:25.502Z,61.94
2023-06-17T07:22:25.538Z,62.75
2023-06-17T07:23:25.497Z,62.62
2023-06-17T07:24:25.529Z,62.22
2023-06-17T07:25:25.462Z,61.91
2023-06-17T07:26:25.462Z,62.02
2023-06-17T07:27:25.459Z,61.82
2023-06-17T07:28:25.433Z,62.42
2023-06-17T07:29:25.451Z,62.22
2023-06-17T07:30:25.487Z,61.88
2023-06-17T07:31:25.437Z,61.69
2023-06-17T07:32:25.515Z,61.69
2023-06-17T07:33:25.377Z,61.49
2023-06-17T07:34:25.376Z,61.05
2023-06-17T07:35:25.393Z,60.55
2023-06-17T07:36:25.353Z,60.25
2023-06-17T07:37:25.379Z,60.15
2023-06-17T07:38:25.333Z,60.05
2023-06-17T07:39:25.329Z,59.65
2023-06-17T07:40:25.396Z,59.72
2023-06-17T07:41:25.297Z,58.22
2023-06-17T07:42:25.291Z,57.61
2023-06-17T07:43:25.291Z,56.91
2023-06-17T07:44:25.296Z,56.71
2023-06-17T07:45:25.299Z,57.21
2023-06-17T07:46:25.302Z,56.38
2023-06-17T07:47:25.226Z,55.78
2023-06-17T07:48:25.229Z,53.67
2023-06-17T07:49:25.241Z,53.55
2023-06-17T07:50:25.252Z,53.64
2023-06-17T07:51:25.236Z,53.22
2023-06-17T07:52:25.208Z,54.43
2023-06-17T07:53:25.179Z,53.72
2023-06-17T07:54:25.190Z,51.51
2023-06-17T07:55:25.167Z,51.79
2023-06-17T07:56:25.168Z,51.69
2023-06-17T07:57:25.135Z,50.69
2023-06-17T07:58:25.121Z,50.69
2023-06-17T07:59:25.152Z,50.59
2023-06-17T08:00:25.149Z,50.76
2023-06-17T08:01:25.112Z,49.87
2023-06-17T08:02:25.136Z,50.37
2023-06-17T08:03:25.211Z,50.46
2023-06-17T08:04:25.061Z,50.37
2023-06-17T08:05:25.091Z,49.76
2023-06-17T08:06:25.061Z,49.74
2023-06-17T08:07:25.059Z,50.04
2023-06-17T08:08:25.047Z,50.24
2023-06-17T08:09:25.009Z,49.64
2023-06-17T08:10:25.112Z,48.92
2023-06-17T08:11:24.983Z,48.52
2023-06-17T08:12:24.988Z,48.82
2023-06-17T08:13:24.984Z,48.72
2023-06-17T08:14:24.986Z,48.39
2023-06-17T08:15:24.993Z,48.49
2023-06-17T08:16:25.006Z,47.60
2023-06-17T08:17:25.038Z,46.99
2023-06-17T08:18:24.940Z,47.19
2023-06-17T08:19:24.921Z,47.87
2023-06-17T08:20:24.942Z,48.17
2023-06-17T08:21:24.896Z,45.87
2023-06-17T08:22:24.886Z,46.47
2023-06-17T08:23:24.871Z,46.87
2023-06-17T08:24:24.882Z,47.07
2023-06-17T08:25:24.873Z,46.27
2023-06-17T08:26:24.843Z,46.59
2023-06-17T08:27:24.823Z,45.79
2023-06-17T08:28:24.819Z,45.79
2023-06-17T08:29:24.825Z,46.87
2023-06-17T08:30:24.868Z,46.77
2023-06-17T08:31:24.822Z,45.27
2023-06-17T08:32:24.806Z,44.97
2023-06-17T08:33:24.785Z,45.37
2023-06-17T08:34:24.802Z,45.67
2023-06-17T08:35:24.750Z,46.37
2023-06-17T08:36:24.781Z,45.67
2023-06-17T08:37:24.721Z,45.97
2023-06-17T08:38:24.723Z,46.35
2023-06-17T08:39:24.735Z,42.95
2023-06-17T08:40:25.050Z,41.96
2023-06-17T08:41:24.686Z,42.35
2023-06-17T08:42:24.687Z,42.55
2023-06-17T08:43:24.675Z,43.05
2023-06-17T08:44:24.672Z,42.85
2023-06-17T08:45:24.740Z,42.76
2023-06-17T08:46:24.702Z,40.36
2023-06-17T08:47:24.619Z,41.85
2023-06-17T08:48:24.628Z,42.33
2023-06-17T08:49:24.604Z,41.46
2023-06-17T08:50:24.669Z,42.03
2023-06-17T08:51:24.611Z,41.93
2023-06-17T08:52:24.576Z,41.53
2023-06-17T08:53:24.579Z,41.44
2023-06-17T08:54:24.567Z,41.71
2023-06-17T08:55:24.556Z,41.61
2023-06-17T08:56:24.578Z,41.61
2023-06-17T08:57:24.536Z,41.61
2023-06-17T08:58:24.556Z,40.01
2023-06-17T08:59:24.517Z,39.92
2023-06-17T09:00:24.851Z,40.42
2023-06-17T09:01:24.550Z,40.92
2023-06-17T09:02:24.538Z,39.22
2023-06-17T09:03:24.459Z,38.62
2023-06-17T09:04:24.530Z,40.01
2023-06-17T09:05:24.515Z,37.12
2023-06-17T09:06:24.442Z,37.23
2023-06-17T09:07:24.415Z,36.93
2023-06-17T09:08:24.452Z,36.63
2023-06-17T09:09:24.427Z,37.32
2023-06-17T09:10:24.559Z,37.72
2023-06-17T09:11:24.394Z,38.22
2023-06-17T09:12:24.391Z,37.92
2023-06-17T09:13:24.435Z,38.92
2023-06-17T09:14:24.368Z,38.31
2023-06-17T09:15:24.354Z,38.10
2023-06-17T09:16:24.350Z,37.40
2023-06-17T09:17:25.869Z,37.40
2023-06-17T09:18:24.340Z,37.21
2023-06-17T09:19:24.362Z,38.00
2023-06-17T09:20:24.750Z,38.70
2023-06-17T09:21:24.284Z,39.00
2023-06-17T09:22:24.273Z,38.80
2023-06-17T09:23:24.275Z,39.18
2023-06-17T09:24:24.299Z,38.89
2023-06-17T09:25:24.283Z,38.78
2023-06-17T09:26:24.244Z,38.89
2023-06-17T09:27:24.234Z,39.08
2023-06-17T09:28:24.269Z,39.06
2023-06-17T09:29:24.212Z,38.89
2023-06-17T09:30:25.069Z,39.78
2023-06-17T09:31:24.193Z,39.96
2023-06-17T09:32:24.249Z,39.46
2023-06-17T09:33:24.172Z,39.26
2023-06-17T09:34:24.169Z,38.54
2023-06-17T09:35:24.133Z,39.14
2023-06-17T09:36:24.121Z,39.04
2023-06-17T09:37:24.121Z,38.65
2023-06-17T09:38:24.096Z,38.54
2023-06-17T09:39:24.120Z,37.45
2023-06-17T09:40:24.242Z,37.25
2023-06-17T09:41:24.094Z,37.67
2023-06-17T09:42:24.088Z,38.17
2023-06-17T09:43:28.035Z,38.07
2023-06-17T09:44:24.085Z,38.17
2023-06-17T09:45:24.080Z,38.07
2023-06-17T09:46:24.060Z,36.87
2023-06-17T09:47:24.068Z,37.47
2023-06-17T09:48:23.998Z,37.87
2023-06-17T09:49:24.012Z,37.17
2023-06-17T09:50:24.211Z,36.97
2023-06-17T09:51:23.984Z,36.57
2023-06-17T09:52:23.978Z,36.57
2023-06-17T09:53:23.980Z,36.27
2023-06-17T09:54:23.965Z,36.37
2023-06-17T09:55:23.968Z,36.67
2023-06-17T09:56:23.952Z,36.65
2023-06-17T09:57:23.923Z,36.85
2023-06-17T09:58:23.909Z,36.55
2023-06-17T09:59:23.903Z,35.06
2023-06-17T10:00:24.000Z,35.96
2023-06-17T10:01:23.874Z,35.47
2023-06-17T10:02:23.865Z,35.88
2023-06-17T10:03:23.951Z,36.97
2023-06-17T10:04:23.967Z,37.17
2023-06-17T10:05:23.883Z,38.35
2023-06-17T10:06:23.848Z,38.45
2023-06-17T10:07:23.835Z,37.83
2023-06-17T10:08:23.809Z,37.83
2023-06-17T10:09:24.512Z,38.71
2023-06-17T10:10:24.000Z,37.81
2023-06-17T10:11:23.788Z,37.32
2023-06-17T10:12:23.779Z,37.32
2023-06-17T10:13:23.760Z,36.52
2023-06-17T10:14:23.745Z,36.82
2023-06-17T10:15:23.784Z,37.34
2023-06-17T10:16:23.720Z,37.43
2023-06-17T10:17:23.769Z,37.83
2023-06-17T10:18:23.701Z,37.83
2023-06-17T10:19:23.700Z,37.63
2023-06-17T10:20:23.971Z,38.11
2023-06-17T10:21:23.685Z,37.92
2023-06-17T10:22:23.651Z,37.62
2023-06-17T10:23:23.648Z,37.90
2023-06-17T10:24:23.675Z,37.70
2023-06-17T10:25:23.640Z,37.00
2023-06-17T10:26:23.638Z,35.79
2023-06-17T10:27:23.616Z,36.49
2023-06-17T10:28:23.603Z,36.88
2023-06-17T10:29:23.601Z,37.08
2023-06-17T10:30:23.894Z,36.98
2023-06-17T10:31:23.895Z,36.68
2023-06-17T10:32:23.590Z,37.48
2023-06-17T10:33:23.563Z,36.88
2023-06-17T10:34:23.536Z,36.98
2023-06-17T10:35:23.542Z,36.68
2023-06-17T10:36:23.530Z,36.68
2023-06-17T10:37:23.539Z,36.58
2023-06-17T10:38:23.508Z,36.40
2023-06-17T10:39:23.507Z,37.30
2023-06-17T10:40:23.982Z,37.70
2023-06-17T10:41:23.490Z,36.90
2023-06-17T10:42:23.473Z,36.50
2023-06-17T10:43:23.467Z,37.02
2023-06-17T10:44:23.433Z,37.41
2023-06-17T10:45:23.441Z,37.12
2023-06-17T10:46:23.554Z,37.41
2023-06-17T10:47:23.566Z,36.72
2023-06-17T10:48:23.462Z,36.62
2023-06-17T10:49:23.396Z,36.50
2023-06-17T10:50:23.809Z,36.70
2023-06-17T10:51:28.395Z,36.50
2023-06-17T10:52:23.384Z,36.40
2023-06-17T10:53:23.375Z,35.91
2023-06-17T10:54:23.335Z,36.21
2023-06-17T10:55:23.340Z,36.30
2023-06-17T10:56:23.326Z,36.00
2023-06-17T10:57:23.316Z,36.10
2023-06-17T10:58:23.309Z,36.60
2023-06-17T10:59:23.328Z,36.40
2023-06-17T11:00:23.591Z,36.70
2023-06-17T11:01:23.271Z,36.60
2023-06-17T11:02:23.320Z,36.80
2023-06-17T11:03:23.400Z,36.30
2023-06-17T11:04:23.242Z,36.30
2023-06-17T11:05:23.236Z,35.79
2023-06-17T11:06:23.217Z,35.79
2023-06-17T11:07:23.224Z,34.88
2023-06-17T11:08:23.193Z,34.38
2023-06-17T11:09:23.208Z,34.48
2023-06-17T11:10:23.430Z,33.98
2023-06-17T11:11:23.165Z,35.08
2023-06-17T11:12:23.139Z,34.98
2023-06-17T11:13:23.137Z,34.88
2023-06-17T11:14:23.118Z,35.17
2023-06-17T11:15:23.145Z,34.78
2023-06-17T11:16:23.128Z,35.47
2023-06-17T11:17:23.195Z,35.99
2023-06-17T11:18:23.107Z,36.08
2023-06-17T11:19:23.130Z,35.19
2023-06-17T11:20:23.304Z,35.39
2023-06-17T11:21:23.100Z,34.80
2023-06-17T11:22:23.053Z,34.50
2023-06-17T11:23:23.052Z,34.59
2023-06-17T11:24:23.086Z,35.59
2023-06-17T11:25:29.485Z,38.26
2023-06-17T11:26:23.223Z,40.05
2023-06-17T11:27:23.014Z,36.77
2023-06-17T11:28:23.004Z,36.47
2023-06-17T11:29:22.989Z,35.38
2023-06-17T11:30:23.174Z,35.57
2023-06-17T11:31:23.044Z,37.86
2023-06-17T11:32:23.130Z,36.47
2023-06-17T11:33:22.954Z,36.17
2023-06-17T11:34:22.943Z,38.65
2023-06-17T11:35:22.930Z,37.56
2023-06-17T11:36:22.923Z,35.87
2023-06-17T11:37:22.983Z,36.05
2023-06-17T11:38:22.925Z,38.83
2023-06-17T11:39:22.925Z,36.94
2023-06-17T11:40:23.151Z,36.55
2023-06-17T11:41:22.857Z,39.23
2023-06-17T11:42:22.838Z,38.24
2023-06-17T11:43:22.834Z,41.12
2023-06-17T11:44:22.860Z,41.71
2023-06-17T11:45:22.815Z,36.77
2023-06-17T11:46:22.870Z,36.96
2023-06-17T11:47:22.888Z,35.17
2023-06-17T11:48:22.786Z,35.47
2023-06-17T11:49:22.781Z,36.17
2023-06-17T11:50:22.989Z,36.27
2023-06-17T11:51:22.800Z,35.38
2023-06-17T11:52:22.757Z,35.47
2023-06-17T11:53:22.733Z,34.08
2023-06-17T11:54:22.717Z,33.87
2023-06-17T11:55:22.725Z,34.27
2023-06-17T11:56:22.691Z,33.17
2023-06-17T11:57:22.710Z,32.97
2023-06-17T11:58:22.693Z,33.97
2023-06-17T11:59:22.688Z,32.67
2023-06-17T12:00:22.942Z,32.96
2023-06-17T12:01:22.656Z,32.46
2023-06-17T12:02:22.753Z,32.76
2023-06-17T12:03:22.673Z,33.14
2023-06-17T12:04:22.662Z,34.73
2023-06-17T12:05:22.628Z,32.56
2023-06-17T12:06:22.611Z,35.04
2023-06-17T12:07:22.607Z,33.76
2023-06-17T12:08:22.579Z,34.66
2023-06-17T12:09:22.584Z,33.17
2023-06-17T12:10:22.851Z,33.59
2023-06-17T12:11:22.554Z,33.09
2023-06-17T12:12:22.532Z,32.20
2023-06-17T12:13:22.547Z,32.28
2023-06-17T12:14:22.527Z,31.58
2023-06-17T12:15:35.814Z,31.58
2023-06-17T12:16:22.498Z,31.38
2023-06-17T12:17:22.538Z,31.29
2023-06-17T12:18:22.481Z,30.79
2023-06-17T12:19:22.478Z,31.18
2023-06-17T12:20:22.462Z,30.99
2023-06-17T12:21:22.470Z,31.18
2023-06-17T12:22:22.429Z,30.89
2023-06-17T12:23:22.421Z,31.88
2023-06-17T12:24:22.496Z,32.78
2023-06-17T12:25:22.643Z,31.29
2023-06-17T12:26:22.419Z,31.18
2023-06-17T12:27:22.392Z,31.37
2023-06-17T12:28:22.375Z,31.67
2023-06-17T12:29:25.948Z,31.35
2023-06-17T12:30:22.365Z,30.76
2023-06-17T12:31:22.374Z,30.74
2023-06-17T12:32:22.337Z,29.55
2023-06-17T12:33:22.318Z,30.35
2023-06-17T12:34:22.318Z,30.25
2023-06-17T12:35:22.512Z,29.06
2023-06-17T12:36:22.310Z,29.17
2023-06-17T12:37:22.287Z,29.07
2023-06-17T12:38:22.296Z,29.58
2023-06-17T12:39:22.293Z,29.78
2023-06-17T12:40:22.280Z,29.88
2023-06-17T12:41:22.288Z,29.78
2023-06-17T12:42:22.256Z,30.08
2023-06-17T12:43:22.231Z,31.27
2023-06-17T12:44:22.232Z,30.97
2023-06-17T12:45:22.701Z,30.97
2023-06-17T12:46:22.246Z,31.26
2023-06-17T12:47:22.232Z,31.45
2023-06-17T12:48:22.179Z,30.46
2023-06-17T12:49:22.163Z,30.86
2023-06-17T12:50:22.146Z,30.76
2023-06-17T12:51:22.171Z,30.16
2023-06-17T12:52:22.130Z,30.86
2023-06-17T12:53:22.126Z,31.15